Terminal Aerodrome Forecast
Issued by NWS

Home | Current Version | Previous Version | Text Only | Print | Product List | Glossary On
Versions: 1 2 3 4 5 6 7 8 9 10 11 12 13 14 15 16 17 18 19
000
FTUS43 KMPX 282340
TAFRNH
TAF
KRNH 282340Z 2900/2924 18012G18KT P6SM FEW070 SCT250
     FM290100 17010KT P6SM BKN250
     FM290800 15006KT P6SM -SHRA OVC060
     FM291100 16004KT P6SM OVC022
     FM291900 31010G20KT 5SM -TSRA BR OVC020CB
     FM292200 34015G23KT P6SM VCSH BKN025=

USA.gov is the U.S. government's official web portal to all federal, state and local government web resources and services.